sensor_id;sensor_type;location;lat;lon;timestamp;temperature;humidity
52415;DHT22;38340;52.964;6.086;2023-10-09T00:01:01;14.20;99.90
52415;DHT22;38340;52.964;6.086;2023-10-09T00:03:29;14.20;99.90
52415;DHT22;38340;52.964;6.086;2023-10-09T00:05:55;14.20;99.90
52415;DHT22;38340;52.964;6.086;2023-10-09T00:08:21;14.20;99.90
52415;DHT22;38340;52.964;6.086;2023-10-09T00:10:50;14.10;99.90
52415;DHT22;38340;52.964;6.086;2023-10-09T00:13:26;14.10;99.90
52415;DHT22;38340;52.964;6.086;2023-10-09T00:16:00;14.10;99.90
52415;DHT22;38340;52.964;6.086;2023-10-09T00:18:34;14.10;99.90
52415;DHT22;38340;52.964;6.086;2023-10-09T00:21:00;14.10;99.90
52415;DHT22;38340;52.964;6.086;2023-10-09T00:23:29;14.10;99.90
52415;DHT22;38340;52.964;6.086;2023-10-09T00:25:59;14.10;99.90
52415;DHT22;38340;52.964;6.086;2023-10-09T00:28:35;14.10;99.90
52415;DHT22;38340;52.964;6.086;2023-10-09T00:31:02;14.10;99.90
52415;DHT22;38340;52.964;6.086;2023-10-09T00:33:32;14.10;99.90
52415;DHT22;38340;52.964;6.086;2023-10-09T00:36:01;14.10;99.90
52415;DHT22;38340;52.964;6.086;2023-10-09T00:38:34;14.10;99.90
52415;DHT22;38340;52.964;6.086;2023-10-09T00:41:00;14.10;99.90
52415;DHT22;38340;52.964;6.086;2023-10-09T00:43:49;14.10;99.90
52415;DHT22;38340;52.964;6.086;2023-10-09T00:46:15;14.10;99.90
52415;DHT22;38340;52.964;6.086;2023-10-09T00:48:45;14.10;99.90
52415;DHT22;38340;52.964;6.086;2023-10-09T00:51:13;14.10;99.90
52415;DHT22;38340;52.964;6.086;2023-10-09T00:53:47;14.00;99.90
52415;DHT22;38340;52.964;6.086;2023-10-09T00:56:19;14.10;99.90
52415;DHT22;38340;52.964;6.086;2023-10-09T00:58:46;14.10;99.90
52415;DHT22;38340;52.964;6.086;2023-10-09T01:01:14;14.00;99.90
52415;DHT22;38340;52.964;6.086;2023-10-09T01:03:41;14.00;99.90
52415;DHT22;38340;52.964;6.086;2023-10-09T01:06:07;14.00;99.90
52415;DHT22;38340;52.964;6.086;2023-10-09T01:08:38;14.00;99.90
52415;DHT22;38340;52.964;6.086;2023-10-09T01:11:07;14.00;99.90
52415;DHT22;38340;52.964;6.086;2023-10-09T01:13:39;14.00;99.90
52415;DHT22;38340;52.964;6.086;2023-10-09T01:16:07;13.90;99.90
52415;DHT22;38340;52.964;6.086;2023-10-09T01:18:40;13.90;99.90
52415;DHT22;38340;52.964;6.086;2023-10-09T01:21:08;13.90;99.90
52415;DHT22;38340;52.964;6.086;2023-10-09T01:23:40;13.90;99.90
52415;DHT22;38340;52.964;6.086;2023-10-09T01:26:09;13.90;99.90
52415;DHT22;38340;52.964;6.086;2023-10-09T01:28:35;13.90;99.90
52415;DHT22;38340;52.964;6.086;2023-10-09T01:31:01;13.90;99.90
52415;DHT22;38340;52.964;6.086;2023-10-09T01:33:26;13.90;99.90
52415;DHT22;38340;52.964;6.086;2023-10-09T01:35:53;13.90;99.90
52415;DHT22;38340;52.964;6.086;2023-10-09T01:38:27;13.90;99.90
52415;DHT22;38340;52.964;6.086;2023-10-09T01:41:11;13.90;99.90
52415;DHT22;38340;52.964;6.086;2023-10-09T01:43:41;13.90;99.90
52415;DHT22;38340;52.964;6.086;2023-10-09T01:46:10;14.00;99.90
52415;DHT22;38340;52.964;6.086;2023-10-09T01:48:36;14.00;99.90
52415;DHT22;38340;52.964;6.086;2023-10-09T01:51:13;13.90;99.90
52415;DHT22;38340;52.964;6.086;2023-10-09T01:53:43;14.00;99.90
52415;DHT22;38340;52.964;6.086;2023-10-09T01:56:09;13.90;99.90
52415;DHT22;38340;52.964;6.086;2023-10-09T01:58:40;13.90;99.90
52415;DHT22;38340;52.964;6.086;2023-10-09T02:01:06;14.00;99.90
52415;DHT22;38340;52.964;6.086;2023-10-09T02:03:31;13.90;99.90
52415;DHT22;38340;52.964;6.086;2023-10-09T02:06:02;14.00;99.90
52415;DHT22;38340;52.964;6.086;2023-10-09T02:08:43;14.00;99.90
52415;DHT22;38340;52.964;6.086;2023-10-09T02:11:15;14.00;99.90
52415;DHT22;38340;52.964;6.086;2023-10-09T02:13:50;14.10;99.90
52415;DHT22;38340;52.964;6.086;2023-10-09T02:16:19;14.10;99.90
52415;DHT22;38340;52.964;6.086;2023-10-09T02:18:53;14.10;99.90
52415;DHT22;38340;52.964;6.086;2023-10-09T02:21:21;14.10;99.90
52415;DHT22;38340;52.964;6.086;2023-10-09T02:24:05;14.10;99.90
52415;DHT22;38340;52.964;6.086;2023-10-09T02:26:32;14.20;99.90
52415;DHT22;38340;52.964;6.086;2023-10-09T02:29:15;14.10;99.90
52415;DHT22;38340;52.964;6.086;2023-10-09T02:31:41;14.20;99.90
52415;DHT22;38340;52.964;6.086;2023-10-09T02:34:09;14.10;99.90
52415;DHT22;38340;52.964;6.086;2023-10-09T02:36:39;14.20;99.90
52415;DHT22;38340;52.964;6.086;2023-10-09T02:39:11;14.20;99.90
52415;DHT22;38340;52.964;6.086;2023-10-09T02:41:49;14.30;99.90
52415;DHT22;38340;52.964;6.086;2023-10-09T02:44:15;14.30;99.90
52415;DHT22;38340;52.964;6.086;2023-10-09T02:46:42;14.30;99.90
52415;DHT22;38340;52.964;6.086;2023-10-09T02:49:10;14.30;99.90
52415;DHT22;38340;52.964;6.086;2023-10-09T02:51:41;14.30;99.90
52415;DHT22;38340;52.964;6.086;2023-10-09T02:54:13;14.30;99.90
52415;DHT22;38340;52.964;6.086;2023-10-09T02:56:53;14.40;99.90
52415;DHT22;38340;52.964;6.086;2023-10-09T02:59:21;14.40;99.90
52415;DHT22;38340;52.964;6.086;2023-10-09T03:01:47;14.40;99.90
52415;DHT22;38340;52.964;6.086;2023-10-09T03:04:13;14.40;99.90
52415;DHT22;38340;52.964;6.086;2023-10-09T03:06:40;14.50;99.90
52415;DHT22;38340;52.964;6.086;2023-10-09T03:09:21;14.50;99.90
52415;DHT22;38340;52.964;6.086;2023-10-09T03:11:52;14.50;99.90
52415;DHT22;38340;52.964;6.086;2023-10-09T03:14:25;14.50;99.90
52415;DHT22;38340;52.964;6.086;2023-10-09T03:16:52;14.50;99.90
52415;DHT22;38340;52.964;6.086;2023-10-09T03:19:17;14.50;99.90
52415;DHT22;38340;52.964;6.086;2023-10-09T03:21:43;14.50;99.90
52415;DHT22;38340;52.964;6.086;2023-10-09T03:24:09;14.50;99.90
52415;DHT22;38340;52.964;6.086;2023-10-09T03:26:36;14.50;99.90
52415;DHT22;38340;52.964;6.086;2023-10-09T03:29:02;14.50;99.90
52415;DHT22;38340;52.964;6.086;2023-10-09T03:31:34;14.50;99.90
52415;DHT22;38340;52.964;6.086;2023-10-09T03:34:05;14.60;99.90
52415;DHT22;38340;52.964;6.086;2023-10-09T03:36:30;14.60;99.90
52415;DHT22;38340;52.964;6.086;2023-10-09T03:38:56;14.60;99.90
52415;DHT22;38340;52.964;6.086;2023-10-09T03:41:23;14.60;99.90
52415;DHT22;38340;52.964;6.086;2023-10-09T03:43:52;14.60;99.90
52415;DHT22;38340;52.964;6.086;2023-10-09T03:46:17;14.60;99.90
52415;DHT22;38340;52.964;6.086;2023-10-09T03:48:50;14.70;99.90
52415;DHT22;38340;52.964;6.086;2023-10-09T03:51:23;14.80;99.90
52415;DHT22;38340;52.964;6.086;2023-10-09T03:53:49;14.80;99.90
52415;DHT22;38340;52.964;6.086;2023-10-09T03:56:16;14.80;99.90
52415;DHT22;38340;52.964;6.086;2023-10-09T03:58:46;14.90;99.90
52415;DHT22;38340;52.964;6.086;2023-10-09T04:01:13;15.00;99.90
52415;DHT22;38340;52.964;6.086;2023-10-09T04:03:48;15.00;99.90
52415;DHT22;38340;52.964;6.086;2023-10-09T04:06:13;15.10;99.90
52415;DHT22;38340;52.964;6.086;2023-10-09T04:08:43;15.10;99.90
52415;DHT22;38340;52.964;6.086;2023-10-09T04:11:13;15.20;99.90
52415;DHT22;38340;52.964;6.086;2023-10-09T04:13:45;15.20;99.90
52415;DHT22;38340;52.964;6.086;2023-10-09T04:16:15;15.30;99.90
52415;DHT22;38340;52.964;6.086;2023-10-09T04:18:52;15.30;99.90
52415;DHT22;38340;52.964;6.086;2023-10-09T04:21:18;15.30;99.90
52415;DHT22;38340;52.964;6.086;2023-10-09T04:24:00;15.40;99.90
52415;DHT22;38340;52.964;6.086;2023-10-09T04:26:34;15.40;99.90
52415;DHT22;38340;52.964;6.086;2023-10-09T04:29:00;15.40;99.90
52415;DHT22;38340;52.964;6.086;2023-10-09T04:31:27;15.50;99.90
52415;DHT22;38340;52.964;6.086;2023-10-09T04:34:00;15.50;99.90
52415;DHT22;38340;52.964;6.086;2023-10-09T04:36:44;15.50;99.90
52415;DHT22;38340;52.964;6.086;2023-10-09T04:39:15;15.60;99.90
52415;DHT22;38340;52.964;6.086;2023-10-09T04:42:01;15.60;99.90
52415;DHT22;38340;52.964;6.086;2023-10-09T04:44:45;15.60;99.90
52415;DHT22;38340;52.964;6.086;2023-10-09T04:47:29;15.70;99.90
52415;DHT22;38340;52.964;6.086;2023-10-09T04:50:10;15.70;99.90
52415;DHT22;38340;52.964;6.086;2023-10-09T04:52:42;15.70;99.90
52415;DHT22;38340;52.964;6.086;2023-10-09T04:55:08;15.70;99.90
52415;DHT22;38340;52.964;6.086;2023-10-09T04:57:36;15.70;99.90
52415;DHT22;38340;52.964;6.086;2023-10-09T05:00:12;15.70;99.90
52415;DHT22;38340;52.964;6.086;2023-10-09T05:02:54;15.70;99.90
52415;DHT22;38340;52.964;6.086;2023-10-09T05:05:22;15.70;99.90
52415;DHT22;38340;52.964;6.086;2023-10-09T05:08:07;15.70;99.90
52415;DHT22;38340;52.964;6.086;2023-10-09T05:11:03;15.70;99.90
52415;DHT22;38340;52.964;6.086;2023-10-09T05:16:07;15.70;99.90
52415;DHT22;38340;52.964;6.086;2023-10-09T05:18:33;15.80;99.90
52415;DHT22;38340;52.964;6.086;2023-10-09T05:21:03;15.70;99.90
52415;DHT22;38340;52.964;6.086;2023-10-09T05:23:38;15.80;99.90
52415;DHT22;38340;52.964;6.086;2023-10-09T05:26:09;15.80;99.90
52415;DHT22;38340;52.964;6.086;2023-10-09T05:28:54;15.80;99.90
52415;DHT22;38340;52.964;6.086;2023-10-09T05:31:23;15.80;99.90
52415;DHT22;38340;52.964;6.086;2023-10-09T05:34:07;15.80;99.90
52415;DHT22;38340;52.964;6.086;2023-10-09T05:36:33;15.90;99.90
52415;DHT22;38340;52.964;6.086;2023-10-09T05:39:00;15.90;99.90
52415;DHT22;38340;52.964;6.086;2023-10-09T05:41:45;15.90;99.90
52415;DHT22;38340;52.964;6.086;2023-10-09T05:44:13;16.00;99.90
52415;DHT22;38340;52.964;6.086;2023-10-09T05:46:58;16.00;99.90
52415;DHT22;38340;52.964;6.086;2023-10-09T05:49:49;16.00;99.90
52415;DHT22;38340;52.964;6.086;2023-10-09T05:52:40;16.00;99.90
52415;DHT22;38340;52.964;6.086;2023-10-09T05:55:06;16.00;99.90
52415;DHT22;38340;52.964;6.086;2023-10-09T05:57:44;16.10;99.90
52415;DHT22;38340;52.964;6.086;2023-10-09T06:00:49;16.00;99.90
52415;DHT22;38340;52.964;6.086;2023-10-09T06:03:33;16.00;99.90
52415;DHT22;38340;52.964;6.086;2023-10-09T06:06:14;16.00;99.90
52415;DHT22;38340;52.964;6.086;2023-10-09T06:09:05;16.10;99.90
52415;DHT22;38340;52.964;6.086;2023-10-09T06:11:52;16.10;99.90
52415;DHT22;38340;52.964;6.086;2023-10-09T06:14:40;16.10;99.90
52415;DHT22;38340;52.964;6.086;2023-10-09T06:17:06;16.20;99.90
52415;DHT22;38340;52.964;6.086;2023-10-09T06:20:04;16.20;99.90
52415;DHT22;38340;52.964;6.086;2023-10-09T06:22:49;16.20;99.90
52415;DHT22;38340;52.964;6.086;2023-10-09T06:25:21;16.10;99.90
52415;DHT22;38340;52.964;6.086;2023-10-09T06:27:52;16.10;99.90
52415;DHT22;38340;52.964;6.086;2023-10-09T06:30:17;16.10;99.90
52415;DHT22;38340;52.964;6.086;2023-10-09T06:32:43;16.20;99.90
52415;DHT22;38340;52.964;6.086;2023-10-09T06:35:33;16.20;99.90
52415;DHT22;38340;52.964;6.086;2023-10-09T06:38:01;16.20;99.90
52415;DHT22;38340;52.964;6.086;2023-10-09T06:40:30;16.20;99.90
52415;DHT22;38340;52.964;6.086;2023-10-09T06:43:15;16.30;99.90
52415;DHT22;38340;52.964;6.086;2023-10-09T06:45:53;16.20;99.90
52415;DHT22;38340;52.964;6.086;2023-10-09T06:48:23;16.30;99.90
52415;DHT22;38340;52.964;6.086;2023-10-09T06:51:08;16.30;99.90
52415;DHT22;38340;52.964;6.086;2023-10-09T06:53:55;16.20;99.90
52415;DHT22;38340;52.964;6.086;2023-10-09T06:56:21;16.30;99.90
52415;DHT22;38340;52.964;6.086;2023-10-09T06:59:03;16.30;99.90
52415;DHT22;38340;52.964;6.086;2023-10-09T07:01:30;16.30;99.90
52415;DHT22;38340;52.964;6.086;2023-10-09T07:04:14;16.30;99.90
52415;DHT22;38340;52.964;6.086;2023-10-09T07:07:05;16.30;99.90
52415;DHT22;38340;52.964;6.086;2023-10-09T07:09:38;16.30;99.90
52415;DHT22;38340;52.964;6.086;2023-10-09T07:12:33;16.30;99.90
52415;DHT22;38340;52.964;6.086;2023-10-09T07:15:00;16.30;99.90
52415;DHT22;38340;52.964;6.086;2023-10-09T07:17:49;16.30;99.90
52415;DHT22;38340;52.964;6.086;2023-10-09T07:20:17;16.30;99.90
52415;DHT22;38340;52.964;6.086;2023-10-09T07:23:02;16.30;99.90
52415;DHT22;38340;52.964;6.086;2023-10-09T07:25:46;16.30;99.90
52415;DHT22;38340;52.964;6.086;2023-10-09T07:28:35;16.30;99.90
52415;DHT22;38340;52.964;6.086;2023-10-09T07:31:16;16.30;99.90
52415;DHT22;38340;52.964;6.086;2023-10-09T07:33:50;16.40;99.90
52415;DHT22;38340;52.964;6.086;2023-10-09T07:36:25;16.30;99.90
52415;DHT22;38340;52.964;6.086;2023-10-09T07:39:03;16.40;99.90
52415;DHT22;38340;52.964;6.086;2023-10-09T07:41:38;16.40;99.90
52415;DHT22;38340;52.964;6.086;2023-10-09T07:44:10;16.40;99.90
52415;DHT22;38340;52.964;6.086;2023-10-09T07:46:44;16.50;99.90
52415;DHT22;38340;52.964;6.086;2023-10-09T07:49:39;16.50;99.90
52415;DHT22;38340;52.964;6.086;2023-10-09T07:52:04;16.50;99.90
52415;DHT22;38340;52.964;6.086;2023-10-09T07:54:31;16.50;99.90
52415;DHT22;38340;52.964;6.086;2023-10-09T07:57:01;16.60;99.90
52415;DHT22;38340;52.964;6.086;2023-10-09T07:59:41;16.60;99.90
52415;DHT22;38340;52.964;6.086;2023-10-09T08:02:20;16.60;99.90
52415;DHT22;38340;52.964;6.086;2023-10-09T08:04:57;16.60;99.90
52415;DHT22;38340;52.964;6.086;2023-10-09T08:07:28;16.70;99.90
52415;DHT22;38340;52.964;6.086;2023-10-09T08:10:04;16.70;99.90
52415;DHT22;38340;52.964;6.086;2023-10-09T08:12:39;16.70;99.90
52415;DHT22;38340;52.964;6.086;2023-10-09T08:15:23;16.70;99.90
52415;DHT22;38340;52.964;6.086;2023-10-09T08:17:55;16.70;99.90
52415;DHT22;38340;52.964;6.086;2023-10-09T08:20:30;16.70;99.90
52415;DHT22;38340;52.964;6.086;2023-10-09T08:23:21;16.70;99.90
52415;DHT22;38340;52.964;6.086;2023-10-09T08:26:14;16.70;99.90
52415;DHT22;38340;52.964;6.086;2023-10-09T08:28:40;16.70;99.90
52415;DHT22;38340;52.964;6.086;2023-10-09T08:31:11;16.70;99.90
52415;DHT22;38340;52.964;6.086;2023-10-09T08:33:55;16.70;99.90
52415;DHT22;38340;52.964;6.086;2023-10-09T08:36:25;16.70;99.90
52415;DHT22;38340;52.964;6.086;2023-10-09T08:38:56;16.60;99.90
52415;DHT22;38340;52.964;6.086;2023-10-09T08:41:26;16.60;99.90
52415;DHT22;38340;52.964;6.086;2023-10-09T08:43:56;16.70;99.90
52415;DHT22;38340;52.964;6.086;2023-10-09T08:46:23;16.70;99.90
52415;DHT22;38340;52.964;6.086;2023-10-09T08:48:52;16.70;99.90
52415;DHT22;38340;52.964;6.086;2023-10-09T08:51:19;16.80;99.90
52415;DHT22;38340;52.964;6.086;2023-10-09T08:53:46;16.80;99.90
52415;DHT22;38340;52.964;6.086;2023-10-09T08:56:16;16.90;99.90
52415;DHT22;38340;52.964;6.086;2023-10-09T08:58:57;16.90;99.90
52415;DHT22;38340;52.964;6.086;2023-10-09T09:01:22;16.90;99.90
52415;DHT22;38340;52.964;6.086;2023-10-09T09:03:50;16.90;99.90
52415;DHT22;38340;52.964;6.086;2023-10-09T09:06:19;16.80;99.90
52415;DHT22;38340;52.964;6.086;2023-10-09T09:08:45;16.80;99.90
52415;DHT22;38340;52.964;6.086;2023-10-09T09:11:15;16.80;99.90
52415;DHT22;38340;52.964;6.086;2023-10-09T09:13:43;16.80;99.90
52415;DHT22;38340;52.964;6.086;2023-10-09T09:18:48;16.90;99.90
52415;DHT22;38340;52.964;6.086;2023-10-09T09:21:23;17.00;99.90
52415;DHT22;38340;52.964;6.086;2023-10-09T09:23:55;17.00;99.90
52415;DHT22;38340;52.964;6.086;2023-10-09T09:26:38;17.00;99.90
52415;DHT22;38340;52.964;6.086;2023-10-09T09:29:10;17.00;99.90
52415;DHT22;38340;52.964;6.086;2023-10-09T09:31:36;17.10;99.90
52415;DHT22;38340;52.964;6.086;2023-10-09T09:34:07;17.10;99.90
52415;DHT22;38340;52.964;6.086;2023-10-09T09:39:22;17.20;99.90
52415;DHT22;38340;52.964;6.086;2023-10-09T09:41:56;17.20;99.90
52415;DHT22;38340;52.964;6.086;2023-10-09T09:44:23;17.20;99.90
52415;DHT22;38340;52.964;6.086;2023-10-09T09:46:57;17.20;99.90
52415;DHT22;38340;52.964;6.086;2023-10-09T09:49:25;17.30;99.90
52415;DHT22;38340;52.964;6.086;2023-10-09T09:52:05;17.30;99.90
52415;DHT22;38340;52.964;6.086;2023-10-09T09:54:38;17.30;99.90
52415;DHT22;38340;52.964;6.086;2023-10-09T09:57:05;17.30;99.90
52415;DHT22;38340;52.964;6.086;2023-10-09T09:59:37;17.30;99.90
52415;DHT22;38340;52.964;6.086;2023-10-09T10:02:05;17.40;99.90
52415;DHT22;38340;52.964;6.086;2023-10-09T10:04:32;17.40;99.90
52415;DHT22;38340;52.964;6.086;2023-10-09T10:07:03;17.50;99.90
52415;DHT22;38340;52.964;6.086;2023-10-09T10:09:41;17.50;99.90
52415;DHT22;38340;52.964;6.086;2023-10-09T10:12:07;17.50;99.90
52415;DHT22;38340;52.964;6.086;2023-10-09T10:14:54;17.60;99.90
52415;DHT22;38340;52.964;6.086;2023-10-09T10:17:25;17.60;99.90
52415;DHT22;38340;52.964;6.086;2023-10-09T10:20:08;17.60;99.90
52415;DHT22;38340;52.964;6.086;2023-10-09T10:22:42;17.60;99.90
52415;DHT22;38340;52.964;6.086;2023-10-09T10:30:46;17.50;99.90
52415;DHT22;38340;52.964;6.086;2023-10-09T10:33:12;17.60;99.90
52415;DHT22;38340;52.964;6.086;2023-10-09T10:35:48;17.60;99.90
52415;DHT22;38340;52.964;6.086;2023-10-09T10:38:24;17.60;99.90
52415;DHT22;38340;52.964;6.086;2023-10-09T10:40:50;17.60;99.90
52415;DHT22;38340;52.964;6.086;2023-10-09T10:43:26;17.60;99.90
52415;DHT22;38340;52.964;6.086;2023-10-09T10:46:05;17.60;99.90
52415;DHT22;38340;52.964;6.086;2023-10-09T10:48:40;17.60;99.90
52415;DHT22;38340;52.964;6.086;2023-10-09T10:51:12;17.70;99.90
52415;DHT22;38340;52.964;6.086;2023-10-09T10:53:58;17.70;99.90
52415;DHT22;38340;52.964;6.086;2023-10-09T10:56:24;17.70;99.90
52415;DHT22;38340;52.964;6.086;2023-10-09T10:59:00;17.80;99.90
52415;DHT22;38340;52.964;6.086;2023-10-09T11:01:32;18.00;99.90
52415;DHT22;38340;52.964;6.086;2023-10-09T11:04:16;18.10;99.90
52415;DHT22;38340;52.964;6.086;2023-10-09T11:06:56;18.30;99.90
52415;DHT22;38340;52.964;6.086;2023-10-09T11:09:49;18.40;99.90
52415;DHT22;38340;52.964;6.086;2023-10-09T11:12:31;18.50;99.90
52415;DHT22;38340;52.964;6.086;2023-10-09T11:15:08;18.80;99.90
52415;DHT22;38340;52.964;6.086;2023-10-09T11:17:44;18.80;99.90
52415;DHT22;38340;52.964;6.086;2023-10-09T11:20:11;18.80;99.90
52415;DHT22;38340;52.964;6.086;2023-10-09T11:22:51;18.70;99.90
52415;DHT22;38340;52.964;6.086;2023-10-09T11:25:42;18.60;99.90
52415;DHT22;38340;52.964;6.086;2023-10-09T11:28:21;18.50;99.90
52415;DHT22;38340;52.964;6.086;2023-10-09T11:31:16;18.50;99.90
52415;DHT22;38340;52.964;6.086;2023-10-09T11:33:50;18.60;99.90
52415;DHT22;38340;52.964;6.086;2023-10-09T11:36:22;18.60;99.90
52415;DHT22;38340;52.964;6.086;2023-10-09T11:39:00;18.60;99.90
52415;DHT22;38340;52.964;6.086;2023-10-09T11:41:41;18.60;99.90
52415;DHT22;38340;52.964;6.086;2023-10-09T11:44:10;18.60;99.90
52415;DHT22;38340;52.964;6.086;2023-10-09T11:47:01;18.50;99.90
52415;DHT22;38340;52.964;6.086;2023-10-09T11:49:53;18.50;99.90
52415;DHT22;38340;52.964;6.086;2023-10-09T11:52:27;18.40;99.90
52415;DHT22;38340;52.964;6.086;2023-10-09T11:55:11;18.40;99.90
52415;DHT22;38340;52.964;6.086;2023-10-09T11:57:41;18.20;99.90
52415;DHT22;38340;52.964;6.086;2023-10-09T12:00:07;18.20;99.90
52415;DHT22;38340;52.964;6.086;2023-10-09T12:02:36;18.10;99.90
52415;DHT22;38340;52.964;6.086;2023-10-09T12:05:10;18.10;99.90
52415;DHT22;38340;52.964;6.086;2023-10-09T12:07:48;18.00;99.90
52415;DHT22;38340;52.964;6.086;2023-10-09T12:10:20;18.00;99.90
52415;DHT22;38340;52.964;6.086;2023-10-09T12:12:51;18.00;99.90
52415;DHT22;38340;52.964;6.086;2023-10-09T12:15:17;18.00;99.90
52415;DHT22;38340;52.964;6.086;2023-10-09T12:17:46;18.00;99.90
52415;DHT22;38340;52.964;6.086;2023-10-09T12:20:15;18.00;99.90
52415;DHT22;38340;52.964;6.086;2023-10-09T12:23:00;18.20;99.90
52415;DHT22;38340;52.964;6.086;2023-10-09T12:25:26;18.30;99.90
52415;DHT22;38340;52.964;6.086;2023-10-09T12:27:51;18.40;99.90
52415;DHT22;38340;52.964;6.086;2023-10-09T12:30:20;18.50;99.90
52415;DHT22;38340;52.964;6.086;2023-10-09T12:32:55;18.50;99.90
52415;DHT22;38340;52.964;6.086;2023-10-09T12:35:23;18.50;99.90
52415;DHT22;38340;52.964;6.086;2023-10-09T12:37:51;18.50;99.90
52415;DHT22;38340;52.964;6.086;2023-10-09T12:40:16;18.50;99.90
52415;DHT22;38340;52.964;6.086;2023-10-09T12:42:52;18.50;99.90
52415;DHT22;38340;52.964;6.086;2023-10-09T12:45:18;18.60;99.90
52415;DHT22;38340;52.964;6.086;2023-10-09T12:47:45;18.60;99.90
52415;DHT22;38340;52.964;6.086;2023-10-09T12:50:13;18.70;99.90
52415;DHT22;38340;52.964;6.086;2023-10-09T12:52:39;18.60;99.90
52415;DHT22;38340;52.964;6.086;2023-10-09T12:55:05;18.60;99.90
52415;DHT22;38340;52.964;6.086;2023-10-09T12:57:36;18.60;99.90
52415;DHT22;38340;52.964;6.086;2023-10-09T13:00:02;18.50;99.90
52415;DHT22;38340;52.964;6.086;2023-10-09T13:02:36;18.40;99.90
52415;DHT22;38340;52.964;6.086;2023-10-09T13:05:01;18.40;99.90
52415;DHT22;38340;52.964;6.086;2023-10-09T13:07:29;18.30;99.90
52415;DHT22;38340;52.964;6.086;2023-10-09T13:09:55;18.20;99.90
52415;DHT22;38340;52.964;6.086;2023-10-09T13:12:39;18.20;99.90
52415;DHT22;38340;52.964;6.086;2023-10-09T13:15:07;18.20;99.90
52415;DHT22;38340;52.964;6.086;2023-10-09T13:17:36;18.20;99.90
52415;DHT22;38340;52.964;6.086;2023-10-09T13:20:02;18.10;99.90
52415;DHT22;38340;52.964;6.086;2023-10-09T13:22:29;18.20;99.90
52415;DHT22;38340;52.964;6.086;2023-10-09T13:24:55;18.30;99.90
52415;DHT22;38340;52.964;6.086;2023-10-09T13:27:29;18.30;99.90
52415;DHT22;38340;52.964;6.086;2023-10-09T13:29:59;18.30;99.90
52415;DHT22;38340;52.964;6.086;2023-10-09T13:32:31;18.40;99.90
52415;DHT22;38340;52.964;6.086;2023-10-09T13:35:01;18.40;99.90
52415;DHT22;38340;52.964;6.086;2023-10-09T13:37:28;18.40;99.90
52415;DHT22;38340;52.964;6.086;2023-10-09T13:39:56;18.40;99.90
52415;DHT22;38340;52.964;6.086;2023-10-09T13:42:22;18.40;99.90
52415;DHT22;38340;52.964;6.086;2023-10-09T13:44:51;18.40;99.90
52415;DHT22;38340;52.964;6.086;2023-10-09T13:47:19;18.40;99.90
52415;DHT22;38340;52.964;6.086;2023-10-09T13:49:49;18.40;99.90
52415;DHT22;38340;52.964;6.086;2023-10-09T13:52:19;18.40;99.90
52415;DHT22;38340;52.964;6.086;2023-10-09T13:54:45;18.30;99.90
52415;DHT22;38340;52.964;6.086;2023-10-09T13:57:14;18.30;99.90
52415;DHT22;38340;52.964;6.086;2023-10-09T13:59:40;18.20;99.90
52415;DHT22;38340;52.964;6.086;2023-10-09T14:02:14;18.20;99.90
52415;DHT22;38340;52.964;6.086;2023-10-09T14:04:43;18.20;99.90
52415;DHT22;38340;52.964;6.086;2023-10-09T14:07:09;18.20;99.90
52415;DHT22;38340;52.964;6.086;2023-10-09T14:09:35;18.10;99.90
52415;DHT22;38340;52.964;6.086;2023-10-09T14:12:04;18.10;99.90
52415;DHT22;38340;52.964;6.086;2023-10-09T14:14:34;18.00;99.90
52415;DHT22;38340;52.964;6.086;2023-10-09T14:17:06;18.00;99.90
52415;DHT22;38340;52.964;6.086;2023-10-09T14:19:57;17.90;99.90
52415;DHT22;38340;52.964;6.086;2023-10-09T14:22:48;17.80;99.90
52415;DHT22;38340;52.964;6.086;2023-10-09T14:25:17;17.80;99.90
52415;DHT22;38340;52.964;6.086;2023-10-09T14:27:46;17.70;99.90
52415;DHT22;38340;52.964;6.086;2023-10-09T14:30:13;17.70;99.90
52415;DHT22;38340;52.964;6.086;2023-10-09T14:32:48;17.70;99.90
52415;DHT22;38340;52.964;6.086;2023-10-09T14:35:17;17.70;99.90
52415;DHT22;38340;52.964;6.086;2023-10-09T14:37:46;17.60;99.90
52415;DHT22;38340;52.964;6.086;2023-10-09T14:40:12;17.60;99.90
52415;DHT22;38340;52.964;6.086;2023-10-09T14:42:39;17.60;99.90
52415;DHT22;38340;52.964;6.086;2023-10-09T14:45:09;17.50;99.90
52415;DHT22;38340;52.964;6.086;2023-10-09T14:47:37;17.40;99.90
52415;DHT22;38340;52.964;6.086;2023-10-09T14:50:03;17.40;99.90
52415;DHT22;38340;52.964;6.086;2023-10-09T14:52:33;17.30;99.90
52415;DHT22;38340;52.964;6.086;2023-10-09T14:54:59;17.30;99.90
52415;DHT22;38340;52.964;6.086;2023-10-09T14:57:25;17.30;99.90
52415;DHT22;38340;52.964;6.086;2023-10-09T14:59:52;17.30;99.90
52415;DHT22;38340;52.964;6.086;2023-10-09T15:02:18;17.30;99.90
52415;DHT22;38340;52.964;6.086;2023-10-09T15:04:44;17.30;99.90
52415;DHT22;38340;52.964;6.086;2023-10-09T15:07:09;17.20;99.90
52415;DHT22;38340;52.964;6.086;2023-10-09T15:09:37;17.20;99.90
52415;DHT22;38340;52.964;6.086;2023-10-09T15:12:05;17.20;99.90
52415;DHT22;38340;52.964;6.086;2023-10-09T15:14:32;17.20;99.90
52415;DHT22;38340;52.964;6.086;2023-10-09T15:16:57;17.20;99.90
52415;DHT22;38340;52.964;6.086;2023-10-09T15:19:23;17.20;99.90
52415;DHT22;38340;52.964;6.086;2023-10-09T15:21:55;17.20;99.90
52415;DHT22;38340;52.964;6.086;2023-10-09T15:24:20;17.20;99.90
52415;DHT22;38340;52.964;6.086;2023-10-09T15:26:46;17.20;99.90
52415;DHT22;38340;52.964;6.086;2023-10-09T15:29:19;17.30;99.90
52415;DHT22;38340;52.964;6.086;2023-10-09T15:31:51;17.30;99.90
52415;DHT22;38340;52.964;6.086;2023-10-09T15:34:17;17.30;99.90
52415;DHT22;38340;52.964;6.086;2023-10-09T15:36:44;17.30;99.90
52415;DHT22;38340;52.964;6.086;2023-10-09T15:39:12;17.30;99.90
52415;DHT22;38340;52.964;6.086;2023-10-09T15:41:38;17.40;99.90
52415;DHT22;38340;52.964;6.086;2023-10-09T15:44:05;17.30;99.90
52415;DHT22;38340;52.964;6.086;2023-10-09T15:46:31;17.30;99.90
52415;DHT22;38340;52.964;6.086;2023-10-09T15:49:00;17.30;99.90
52415;DHT22;38340;52.964;6.086;2023-10-09T15:51:27;17.20;99.90
52415;DHT22;38340;52.964;6.086;2023-10-09T15:53:52;17.20;99.90
52415;DHT22;38340;52.964;6.086;2023-10-09T15:56:18;17.30;99.90
52415;DHT22;38340;52.964;6.086;2023-10-09T15:58:44;17.30;99.90
52415;DHT22;38340;52.964;6.086;2023-10-09T16:01:13;17.20;99.90
52415;DHT22;38340;52.964;6.086;2023-10-09T16:03:40;17.30;99.90
52415;DHT22;38340;52.964;6.086;2023-10-09T16:06:06;17.20;99.90
52415;DHT22;38340;52.964;6.086;2023-10-09T16:08:34;17.30;99.90
52415;DHT22;38340;52.964;6.086;2023-10-09T16:11:02;17.30;99.90
52415;DHT22;38340;52.964;6.086;2023-10-09T16:13:27;17.20;99.90
52415;DHT22;38340;52.964;6.086;2023-10-09T16:15:53;17.10;99.90